sensor_id;sensor_type;location;lat;lon;timestamp;pressure;altitude;pressure_sealevel;temperature;humidity
23899;BME280;20544;50.018;20.010;2022-12-18T00:02:01;100243.98;;;-4.13;100.00
23899;BME280;20544;50.018;20.010;2022-12-18T00:05:17;100247.88;;;-4.26;100.00
23899;BME280;20544;50.018;20.010;2022-12-18T00:08:34;100243.24;;;-4.16;100.00
23899;BME280;20544;50.018;20.010;2022-12-18T00:11:50;100251.34;;;-4.26;100.00
23899;BME280;20544;50.018;20.010;2022-12-18T00:15:07;100251.67;;;-4.10;100.00
23899;BME280;20544;50.018;20.010;2022-12-18T00:18:24;100253.88;;;-4.24;100.00
23899;BME280;20544;50.018;20.010;2022-12-18T00:21:41;100261.36;;;-4.15;100.00
23899;BME280;20544;50.018;20.010;2022-12-18T00:24:57;100276.19;;;-4.20;100.00
23899;BME280;20544;50.018;20.010;2022-12-18T00:28:13;100282.23;;;-4.19;100.00
23899;BME280;20544;50.018;20.010;2022-12-18T00:31:30;100281.48;;;-4.23;100.00
23899;BME280;20544;50.018;20.010;2022-12-18T00:34:47;100277.14;;;-4.23;100.00
23899;BME280;20544;50.018;20.010;2022-12-18T00:38:04;100280.48;;;-4.19;100.00
23899;BME280;20544;50.018;20.010;2022-12-18T00:41:20;100285.58;;;-4.16;100.00
23899;BME280;20544;50.018;20.010;2022-12-18T00:44:51;100289.00;;;-4.15;100.00
23899;BME280;20544;50.018;20.010;2022-12-18T00:48:08;100296.92;;;-4.20;100.00
23899;BME280;20544;50.018;20.010;2022-12-18T00:51:24;100299.23;;;-4.11;100.00
23899;BME280;20544;50.018;20.010;2022-12-18T00:54:42;100313.02;;;-4.10;100.00
23899;BME280;20544;50.018;20.010;2022-12-18T00:57:58;100313.97;;;-4.13;100.00
23899;BME280;20544;50.018;20.010;2022-12-18T01:01:15;100311.50;;;-4.16;100.00
23899;BME280;20544;50.018;20.010;2022-12-18T01:04:34;100320.57;;;-4.02;100.00
23899;BME280;20544;50.018;20.010;2022-12-18T01:07:51;100317.25;;;-4.08;100.00
23899;BME280;20544;50.018;20.010;2022-12-18T01:11:11;100334.25;;;-3.99;100.00
23899;BME280;20544;50.018;20.010;2022-12-18T01:14:29;100331.77;;;-4.02;100.00
23899;BME280;20544;50.018;20.010;2022-12-18T01:17:45;100340.56;;;-4.06;100.00
23899;BME280;20544;50.018;20.010;2022-12-18T01:21:02;100343.91;;;-4.02;100.00
23899;BME280;20544;50.018;20.010;2022-12-18T01:24:19;100339.41;;;-3.97;100.00
23899;BME280;20544;50.018;20.010;2022-12-18T01:27:36;100344.30;;;-4.15;100.00
23899;BME280;20544;50.018;20.010;2022-12-18T01:30:53;100344.19;;;-4.12;100.00
23899;BME280;20544;50.018;20.010;2022-12-18T01:34:10;100354.61;;;-4.13;100.00
23899;BME280;20544;50.018;20.010;2022-12-18T01:37:27;100345.14;;;-4.14;100.00
23899;BME280;20544;50.018;20.010;2022-12-18T01:40:43;100357.00;;;-4.07;100.00
23899;BME280;20544;50.018;20.010;2022-12-18T01:44:01;100349.80;;;-3.99;100.00
23899;BME280;20544;50.018;20.010;2022-12-18T01:47:35;100359.86;;;-4.15;100.00
23899;BME280;20544;50.018;20.010;2022-12-18T01:50:54;100360.58;;;-4.11;100.00
23899;BME280;20544;50.018;20.010;2022-12-18T01:54:10;100360.80;;;-4.17;100.00
23899;BME280;20544;50.018;20.010;2022-12-18T01:57:28;100367.57;;;-4.13;100.00
23899;BME280;20544;50.018;20.010;2022-12-18T02:00:45;100365.53;;;-4.03;100.00
23899;BME280;20544;50.018;20.010;2022-12-18T02:04:21;100373.00;;;-3.94;100.00
23899;BME280;20544;50.018;20.010;2022-12-18T02:07:45;100376.94;;;-4.09;100.00
23899;BME280;20544;50.018;20.010;2022-12-18T02:11:10;100384.38;;;-3.98;100.00
23899;BME280;20544;50.018;20.010;2022-12-18T02:14:30;100381.56;;;-4.19;100.00
23899;BME280;20544;50.018;20.010;2022-12-18T02:17:52;100386.61;;;-4.14;100.00
23899;BME280;20544;50.018;20.010;2022-12-18T02:21:16;100388.31;;;-4.13;100.00
23899;BME280;20544;50.018;20.010;2022-12-18T02:24:38;100407.91;;;-4.04;100.00
23899;BME280;20544;50.018;20.010;2022-12-18T02:27:58;100408.66;;;-4.01;100.00
23899;BME280;20544;50.018;20.010;2022-12-18T02:31:19;100401.83;;;-4.03;100.00
23899;BME280;20544;50.018;20.010;2022-12-18T02:34:40;100419.61;;;-3.93;100.00
23899;BME280;20544;50.018;20.010;2022-12-18T02:37:59;100419.53;;;-3.90;100.00
23899;BME280;20544;50.018;20.010;2022-12-18T02:41:17;100415.35;;;-3.94;100.00
23899;BME280;20544;50.018;20.010;2022-12-18T02:44:34;100422.32;;;-3.96;100.00
23899;BME280;20544;50.018;20.010;2022-12-18T02:47:59;100427.95;;;-4.10;100.00
23899;BME280;20544;50.018;20.010;2022-12-18T02:51:21;100430.48;;;-4.08;100.00
23899;BME280;20544;50.018;20.010;2022-12-18T02:54:55;100441.66;;;-4.06;100.00
23899;BME280;20544;50.018;20.010;2022-12-18T02:58:16;100433.89;;;-4.06;100.00
23899;BME280;20544;50.018;20.010;2022-12-18T03:01:38;100445.91;;;-4.03;100.00
23899;BME280;20544;50.018;20.010;2022-12-18T03:05:00;100445.15;;;-4.07;100.00
23899;BME280;20544;50.018;20.010;2022-12-18T03:08:23;100445.92;;;-4.05;100.00
23899;BME280;20544;50.018;20.010;2022-12-18T03:11:46;100443.14;;;-3.99;100.00
23899;BME280;20544;50.018;20.010;2022-12-18T03:15:19;100453.52;;;-3.99;100.00
23899;BME280;20544;50.018;20.010;2022-12-18T03:18:42;100457.73;;;-3.95;100.00
23899;BME280;20544;50.018;20.010;2022-12-18T03:22:02;100455.27;;;-3.99;100.00
23899;BME280;20544;50.018;20.010;2022-12-18T03:25:22;100457.81;;;-3.98;100.00
23899;BME280;20544;50.018;20.010;2022-12-18T03:28:42;100457.22;;;-4.06;100.00
23899;BME280;20544;50.018;20.010;2022-12-18T03:32:04;100472.02;;;-4.10;100.00
23899;BME280;20544;50.018;20.010;2022-12-18T03:35:24;100472.53;;;-3.98;100.00
23899;BME280;20544;50.018;20.010;2022-12-18T03:38:43;100475.88;;;-3.95;100.00
23899;BME280;20544;50.018;20.010;2022-12-18T03:42:04;100478.36;;;-3.92;100.00
23899;BME280;20544;50.018;20.010;2022-12-18T03:45:26;100481.63;;;-3.85;100.00
23899;BME280;20544;50.018;20.010;2022-12-18T03:48:52;100498.41;;;-3.97;100.00
23899;BME280;20544;50.018;20.010;2022-12-18T03:52:16;100491.52;;;-3.98;100.00
23899;BME280;20544;50.018;20.010;2022-12-18T03:55:36;100491.70;;;-4.04;100.00
23899;BME280;20544;50.018;20.010;2022-12-18T03:58:54;100482.84;;;-3.97;100.00
23899;BME280;20544;50.018;20.010;2022-12-18T04:02:12;100495.16;;;-4.03;100.00
23899;BME280;20544;50.018;20.010;2022-12-18T04:05:32;100497.89;;;-4.08;100.00
23899;BME280;20544;50.018;20.010;2022-12-18T04:08:51;100504.72;;;-4.06;100.00
23899;BME280;20544;50.018;20.010;2022-12-18T04:12:10;100505.02;;;-4.15;100.00
23899;BME280;20544;50.018;20.010;2022-12-18T04:15:27;100508.98;;;-4.33;100.00
23899;BME280;20544;50.018;20.010;2022-12-18T04:18:44;100514.22;;;-4.34;100.00
23899;BME280;20544;50.018;20.010;2022-12-18T04:22:01;100512.86;;;-4.48;100.00
23899;BME280;20544;50.018;20.010;2022-12-18T04:25:19;100507.68;;;-4.48;100.00
23899;BME280;20544;50.018;20.010;2022-12-18T04:28:38;100509.73;;;-4.59;100.00
23899;BME280;20544;50.018;20.010;2022-12-18T04:31:55;100520.98;;;-4.60;100.00
23899;BME280;20544;50.018;20.010;2022-12-18T04:35:12;100526.09;;;-4.57;100.00
23899;BME280;20544;50.018;20.010;2022-12-18T04:38:28;100527.14;;;-4.64;100.00
23899;BME280;20544;50.018;20.010;2022-12-18T04:41:46;100530.91;;;-4.76;100.00
23899;BME280;20544;50.018;20.010;2022-12-18T04:45:02;100539.33;;;-4.68;100.00
23899;BME280;20544;50.018;20.010;2022-12-18T04:48:20;100535.91;;;-4.70;100.00
23899;BME280;20544;50.018;20.010;2022-12-18T04:51:36;100540.16;;;-4.67;100.00
23899;BME280;20544;50.018;20.010;2022-12-18T04:54:52;100546.48;;;-4.78;100.00
23899;BME280;20544;50.018;20.010;2022-12-18T04:58:09;100549.80;;;-4.73;100.00
23899;BME280;20544;50.018;20.010;2022-12-18T05:01:25;100550.78;;;-4.77;100.00
23899;BME280;20544;50.018;20.010;2022-12-18T05:04:43;100552.32;;;-4.69;100.00
23899;BME280;20544;50.018;20.010;2022-12-18T05:07:59;100571.23;;;-4.67;100.00
23899;BME280;20544;50.018;20.010;2022-12-18T05:11:16;100567.97;;;-4.74;100.00
23899;BME280;20544;50.018;20.010;2022-12-18T05:14:32;100564.45;;;-4.72;100.00
23899;BME280;20544;50.018;20.010;2022-12-18T05:17:49;100566.88;;;-4.65;100.00
23899;BME280;20544;50.018;20.010;2022-12-18T05:21:06;100573.98;;;-4.74;100.00
23899;BME280;20544;50.018;20.010;2022-12-18T05:24:23;100576.00;;;-4.83;100.00
23899;BME280;20544;50.018;20.010;2022-12-18T05:27:39;100573.92;;;-4.71;100.00
23899;BME280;20544;50.018;20.010;2022-12-18T05:30:58;100584.13;;;-4.64;100.00
23899;BME280;20544;50.018;20.010;2022-12-18T05:34:15;100580.77;;;-4.68;100.00
23899;BME280;20544;50.018;20.010;2022-12-18T05:37:32;100577.40;;;-4.72;100.00
23899;BME280;20544;50.018;20.010;2022-12-18T05:40:51;100584.89;;;-4.61;100.00
23899;BME280;20544;50.018;20.010;2022-12-18T05:44:07;100587.59;;;-4.65;100.00
23899;BME280;20544;50.018;20.010;2022-12-18T05:47:24;100589.42;;;-4.69;100.00
23899;BME280;20544;50.018;20.010;2022-12-18T05:50:42;100592.94;;;-4.72;100.00
23899;BME280;20544;50.018;20.010;2022-12-18T05:54:00;100598.06;;;-4.68;100.00
23899;BME280;20544;50.018;20.010;2022-12-18T05:57:16;100607.34;;;-4.61;100.00
23899;BME280;20544;50.018;20.010;2022-12-18T06:00:35;100609.61;;;-4.49;100.00
23899;BME280;20544;50.018;20.010;2022-12-18T06:03:54;100614.11;;;-4.56;100.00
23899;BME280;20544;50.018;20.010;2022-12-18T06:07:11;100616.77;;;-4.59;100.00
23899;BME280;20544;50.018;20.010;2022-12-18T06:10:27;100624.48;;;-4.56;100.00
23899;BME280;20544;50.018;20.010;2022-12-18T06:13:44;100632.72;;;-4.41;100.00
23899;BME280;20544;50.018;20.010;2022-12-18T06:17:04;100634.19;;;-4.31;100.00
23899;BME280;20544;50.018;20.010;2022-12-18T06:20:23;100642.97;;;-4.36;100.00
23899;BME280;20544;50.018;20.010;2022-12-18T06:23:41;100645.61;;;-4.38;100.00
23899;BME280;20544;50.018;20.010;2022-12-18T06:26:57;100643.02;;;-4.38;100.00
23899;BME280;20544;50.018;20.010;2022-12-18T06:30:14;100640.75;;;-4.50;100.00
23899;BME280;20544;50.018;20.010;2022-12-18T06:33:31;100637.59;;;-4.62;100.00
23899;BME280;20544;50.018;20.010;2022-12-18T06:36:48;100641.84;;;-4.59;100.00
23899;BME280;20544;50.018;20.010;2022-12-18T06:40:06;100644.53;;;-4.64;100.00
23899;BME280;20544;50.018;20.010;2022-12-18T06:43:23;100652.97;;;-4.56;100.00
23899;BME280;20544;50.018;20.010;2022-12-18T06:46:40;100664.27;;;-4.58;100.00
23899;BME280;20544;50.018;20.010;2022-12-18T06:49:56;100660.70;;;-4.54;100.00
23899;BME280;20544;50.018;20.010;2022-12-18T06:53:13;100665.77;;;-4.49;100.00
23899;BME280;20544;50.018;20.010;2022-12-18T06:56:29;100667.59;;;-4.53;100.00
23899;BME280;20544;50.018;20.010;2022-12-18T06:59:46;100681.47;;;-4.56;100.00
23899;BME280;20544;50.018;20.010;2022-12-18T07:03:02;100677.86;;;-4.50;100.00
23899;BME280;20544;50.018;20.010;2022-12-18T07:06:22;100685.98;;;-4.64;100.00
23899;BME280;20544;50.018;20.010;2022-12-18T07:09:39;100699.71;;;-4.60;100.00
23899;BME280;20544;50.018;20.010;2022-12-18T07:12:56;100702.19;;;-4.56;100.00
23899;BME280;20544;50.018;20.010;2022-12-18T07:16:14;100701.47;;;-4.61;100.00
23899;BME280;20544;50.018;20.010;2022-12-18T07:19:33;100706.55;;;-4.58;100.00
23899;BME280;20544;50.018;20.010;2022-12-18T07:22:49;100708.16;;;-4.52;100.00
23899;BME280;20544;50.018;20.010;2022-12-18T07:26:07;100713.44;;;-4.57;100.00
23899;BME280;20544;50.018;20.010;2022-12-18T07:29:24;100717.73;;;-4.56;100.00
23899;BME280;20544;50.018;20.010;2022-12-18T07:32:40;100729.45;;;-4.41;100.00
23899;BME280;20544;50.018;20.010;2022-12-18T07:35:58;100736.81;;;-4.24;100.00
23899;BME280;20544;50.018;20.010;2022-12-18T07:39:18;100743.56;;;-4.18;100.00
23899;BME280;20544;50.018;20.010;2022-12-18T07:42:41;100747.35;;;-4.31;100.00
23899;BME280;20544;50.018;20.010;2022-12-18T07:45:58;100752.06;;;-4.13;100.00
23899;BME280;20544;50.018;20.010;2022-12-18T07:49:14;100754.75;;;-4.16;100.00
23899;BME280;20544;50.018;20.010;2022-12-18T07:52:30;100755.69;;;-4.18;100.00
23899;BME280;20544;50.018;20.010;2022-12-18T07:55:46;100760.94;;;-4.22;100.00
23899;BME280;20544;50.018;20.010;2022-12-18T07:59:04;100757.34;;;-4.16;100.00
23899;BME280;20544;50.018;20.010;2022-12-18T08:02:22;100754.75;;;-4.16;100.00
23899;BME280;20544;50.018;20.010;2022-12-18T08:05:38;100768.91;;;-3.95;100.00
23899;BME280;20544;50.018;20.010;2022-12-18T08:08:58;100765.05;;;-3.80;100.00
23899;BME280;20544;50.018;20.010;2022-12-18T08:12:14;100773.50;;;-3.73;100.00
23899;BME280;20544;50.018;20.010;2022-12-18T08:15:31;100769.02;;;-3.66;100.00
23899;BME280;20544;50.018;20.010;2022-12-18T08:18:47;100772.33;;;-3.61;100.00
23899;BME280;20544;50.018;20.010;2022-12-18T08:22:05;100774.75;;;-3.55;100.00
23899;BME280;20544;50.018;20.010;2022-12-18T08:25:24;100777.52;;;-3.61;100.00
23899;BME280;20544;50.018;20.010;2022-12-18T08:28:41;100787.02;;;-3.62;100.00
23899;BME280;20544;50.018;20.010;2022-12-18T08:31:58;100784.91;;;-3.79;100.00
23899;BME280;20544;50.018;20.010;2022-12-18T08:35:14;100787.34;;;-3.72;100.00
23899;BME280;20544;50.018;20.010;2022-12-18T08:38:31;100782.27;;;-3.77;100.00
23899;BME280;20544;50.018;20.010;2022-12-18T08:41:49;100786.19;;;-3.62;100.00
23899;BME280;20544;50.018;20.010;2022-12-18T08:45:17;100790.98;;;-3.48;100.00
23899;BME280;20544;50.018;20.010;2022-12-18T08:48:34;100792.86;;;-3.53;100.00
23899;BME280;20544;50.018;20.010;2022-12-18T08:51:50;100793.48;;;-3.45;100.00
23899;BME280;20544;50.018;20.010;2022-12-18T08:55:08;100803.69;;;-3.39;100.00
23899;BME280;20544;50.018;20.010;2022-12-18T08:58:27;100808.59;;;-3.28;100.00
23899;BME280;20544;50.018;20.010;2022-12-18T09:01:44;100812.99;;;-3.30;100.00
23899;BME280;20544;50.018;20.010;2022-12-18T09:05:06;100819.14;;;-3.34;100.00
23899;BME280;20544;50.018;20.010;2022-12-18T09:08:26;100818.26;;;-3.33;100.00
23899;BME280;20544;50.018;20.010;2022-12-18T09:11:46;100815.37;;;-3.22;100.00
23899;BME280;20544;50.018;20.010;2022-12-18T09:15:02;100816.80;;;-3.12;100.00
23899;BME280;20544;50.018;20.010;2022-12-18T09:18:20;100814.60;;;-2.96;100.00
23899;BME280;20544;50.018;20.010;2022-12-18T09:21:37;100819.92;;;-3.01;100.00
23899;BME280;20544;50.018;20.010;2022-12-18T09:24:55;100824.94;;;-2.95;100.00
23899;BME280;20544;50.018;20.010;2022-12-18T09:28:16;100833.31;;;-2.85;100.00
23899;BME280;20544;50.018;20.010;2022-12-18T09:31:33;100831.29;;;-2.75;100.00
23899;BME280;20544;50.018;20.010;2022-12-18T09:34:49;100833.46;;;-2.61;100.00
23899;BME280;20544;50.018;20.010;2022-12-18T09:38:06;100834.09;;;-2.53;100.00
23899;BME280;20544;50.018;20.010;2022-12-18T09:41:39;100822.88;;;-2.55;100.00
23899;BME280;20544;50.018;20.010;2022-12-18T09:45:03;100828.45;;;-2.39;100.00
23899;BME280;20544;50.018;20.010;2022-12-18T09:48:28;100822.69;;;-2.49;100.00
23899;BME280;20544;50.018;20.010;2022-12-18T09:51:49;100832.45;;;-2.57;100.00
23899;BME280;20544;50.018;20.010;2022-12-18T09:55:14;100834.16;;;-2.56;100.00
23899;BME280;20544;50.018;20.010;2022-12-18T09:58:33;100834.22;;;-2.57;100.00
23899;BME280;20544;50.018;20.010;2022-12-18T10:01:53;100837.95;;;-2.66;100.00
23899;BME280;20544;50.018;20.010;2022-12-18T10:05:14;100832.13;;;-2.74;100.00
23899;BME280;20544;50.018;20.010;2022-12-18T10:08:39;100839.16;;;-2.78;100.00
23899;BME280;20544;50.018;20.010;2022-12-18T10:12:02;100831.42;;;-2.80;100.00
23899;BME280;20544;50.018;20.010;2022-12-18T10:15:24;100830.97;;;-2.94;100.00
23899;BME280;20544;50.018;20.010;2022-12-18T10:19:00;100832.26;;;-2.79;100.00
23899;BME280;20544;50.018;20.010;2022-12-18T10:22:29;100837.38;;;-2.76;100.00
23899;BME280;20544;50.018;20.010;2022-12-18T10:25:55;100837.95;;;-2.66;100.00
23899;BME280;20544;50.018;20.010;2022-12-18T10:29:16;100837.82;;;-2.62;100.00
23899;BME280;20544;50.018;20.010;2022-12-18T10:32:33;100837.47;;;-2.51;100.00
23899;BME280;20544;50.018;20.010;2022-12-18T10:35:50;100829.39;;;-2.41;100.00
23899;BME280;20544;50.018;20.010;2022-12-18T10:39:18;100823.00;;;-2.31;100.00
23899;BME280;20544;50.018;20.010;2022-12-18T10:42:36;100823.55;;;-2.21;100.00
23899;BME280;20544;50.018;20.010;2022-12-18T10:46:12;100814.55;;;-2.38;100.00
23899;BME280;20544;50.018;20.010;2022-12-18T10:49:32;100812.28;;;-2.22;100.00
23899;BME280;20544;50.018;20.010;2022-12-18T10:53:00;100821.23;;;-2.31;100.00
23899;BME280;20544;50.018;20.010;2022-12-18T10:56:19;100810.48;;;-2.20;100.00
23899;BME280;20544;50.018;20.010;2022-12-18T10:59:39;100814.16;;;-2.25;100.00
23899;BME280;20544;50.018;20.010;2022-12-18T11:03:07;100806.88;;;-2.16;100.00
23899;BME280;20544;50.018;20.010;2022-12-18T11:06:51;100816.47;;;-1.91;100.00
23899;BME280;20544;50.018;20.010;2022-12-18T11:10:17;100800.78;;;-2.15;100.00
23899;BME280;20544;50.018;20.010;2022-12-18T11:13:36;100795.84;;;-2.22;100.00
23899;BME280;20544;50.018;20.010;2022-12-18T11:16:53;100800.69;;;-2.12;100.00
23899;BME280;20544;50.018;20.010;2022-12-18T11:20:21;100785.70;;;-2.30;100.00
23899;BME280;20544;50.018;20.010;2022-12-18T11:23:49;100783.13;;;-2.05;100.00
23899;BME280;20544;50.018;20.010;2022-12-18T11:27:16;100779.20;;;-1.91;100.00
23899;BME280;20544;50.018;20.010;2022-12-18T11:30:34;100785.44;;;-2.22;100.00
23899;BME280;20544;50.018;20.010;2022-12-18T11:34:03;100779.05;;;-2.39;100.00
23899;BME280;20544;50.018;20.010;2022-12-18T11:37:26;100778.59;;;-2.25;100.00
23899;BME280;20544;50.018;20.010;2022-12-18T11:40:47;100782.09;;;-2.26;100.00
23899;BME280;20544;50.018;20.010;2022-12-18T11:44:08;100789.13;;;-2.30;100.00
23899;BME280;20544;50.018;20.010;2022-12-18T11:47:37;100784.83;;;-2.31;100.00
23899;BME280;20544;50.018;20.010;2022-12-18T11:50:54;100787.23;;;-2.24;100.00
23899;BME280;20544;50.018;20.010;2022-12-18T11:54:14;100800.95;;;-2.19;100.00
23899;BME280;20544;50.018;20.010;2022-12-18T11:57:37;100791.45;;;-2.20;100.00
23899;BME280;20544;50.018;20.010;2022-12-18T12:00:58;100794.95;;;-2.21;100.00
23899;BME280;20544;50.018;20.010;2022-12-18T12:04:38;100807.69;;;-2.14;100.00
23899;BME280;20544;50.018;20.010;2022-12-18T12:08:11;100805.23;;;-2.18;100.00
23899;BME280;20544;50.018;20.010;2022-12-18T12:11:35;100802.25;;;-2.33;100.00
23899;BME280;20544;50.018;20.010;2022-12-18T12:14:59;100798.28;;;-2.45;100.00
23899;BME280;20544;50.018;20.010;2022-12-18T12:18:25;100794.91;;;-2.47;100.00
23899;BME280;20544;50.018;20.010;2022-12-18T12:21:48;100807.59;;;-2.37;100.00
23899;BME280;20544;50.018;20.010;2022-12-18T12:25:21;100794.91;;;-2.47;100.00
23899;BME280;20544;50.018;20.010;2022-12-18T12:29:05;100797.30;;;-2.40;100.00
23899;BME280;20544;50.018;20.010;2022-12-18T12:32:38;100808.17;;;-2.56;100.00
23899;BME280;20544;50.018;20.010;2022-12-18T12:36:10;100815.41;;;-2.66;100.00
23899;BME280;20544;50.018;20.010;2022-12-18T12:39:32;100818.70;;;-2.61;100.00
23899;BME280;20544;50.018;20.010;2022-12-18T12:42:59;100821.55;;;-2.68;100.00
23899;BME280;20544;50.018;20.010;2022-12-18T12:46:28;100829.67;;;-2.51;100.00
23899;BME280;20544;50.018;20.010;2022-12-18T12:49:48;100838.28;;;-2.49;100.00
23899;BME280;20544;50.018;20.010;2022-12-18T12:53:07;100833.73;;;-2.42;100.00
23899;BME280;20544;50.018;20.010;2022-12-18T12:56:30;100833.59;;;-2.37;100.00
23899;BME280;20544;50.018;20.010;2022-12-18T13:00:06;100846.13;;;-2.50;100.00
23899;BME280;20544;50.018;20.010;2022-12-18T13:03:30;100853.63;;;-2.69;100.00
23899;BME280;20544;50.018;20.010;2022-12-18T13:06:53;100855.75;;;-2.82;100.00
23899;BME280;20544;50.018;20.010;2022-12-18T13:10:31;100856.52;;;-2.79;100.00
23899;BME280;20544;50.018;20.010;2022-12-18T13:13:53;100862.34;;;-2.70;100.00
23899;BME280;20544;50.018;20.010;2022-12-18T13:17:26;100857.27;;;-2.75;100.00
23899;BME280;20544;50.018;20.010;2022-12-18T13:20:49;100853.25;;;-2.85;100.00
23899;BME280;20544;50.018;20.010;2022-12-18T13:24:23;100860.18;;;-2.86;100.00
23899;BME280;20544;50.018;20.010;2022-12-18T13:28:09;100870.27;;;-2.75;100.00
23899;BME280;20544;50.018;20.010;2022-12-18T13:35:51;100862.86;;;-2.59;100.00
23899;BME280;20544;50.018;20.010;2022-12-18T13:39:35;100869.66;;;-2.55;100.00
23899;BME280;20544;50.018;20.010;2022-12-18T13:42:52;100869.47;;;-2.49;100.00
23899;BME280;20544;50.018;20.010;2022-12-18T13:46:30;100886.02;;;-2.51;100.00
23899;BME280;20544;50.018;20.010;2022-12-18T13:49:58;100883.47;;;-2.53;100.00
23899;BME280;20544;50.018;20.010;2022-12-18T13:53:20;100901.08;;;-2.63;100.00
23899;BME280;20544;50.018;20.010;2022-12-18T13:56:42;100903.86;;;-2.69;100.00
23899;BME280;20544;50.018;20.010;2022-12-18T14:00:14;100903.28;;;-2.79;100.00
23899;BME280;20544;50.018;20.010;2022-12-18T14:03:31;100895.78;;;-2.89;100.00
23899;BME280;20544;50.018;20.010;2022-12-18T14:06:49;100897.66;;;-2.95;100.00
23899;BME280;20544;50.018;20.010;2022-12-18T14:10:14;100906.52;;;-3.02;100.00
23899;BME280;20544;50.018;20.010;2022-12-18T14:13:35;100907.95;;;-3.21;100.00
23899;BME280;20544;50.018;20.010;2022-12-18T14:16:57;100919.22;;;-3.22;100.00
23899;BME280;20544;50.018;20.010;2022-12-18T14:20:17;100913.69;;;-3.43;100.00
23899;BME280;20544;50.018;20.010;2022-12-18T14:23:37;100914.78;;;-3.52;100.00
23899;BME280;20544;50.018;20.010;2022-12-18T14:26:57;100919.34;;;-3.62;100.00
23899;BME280;20544;50.018;20.010;2022-12-18T14:30:29;100926.64;;;-3.76;100.00
23899;BME280;20544;50.018;20.010;2022-12-18T14:33:47;100925.23;;;-3.90;100.00
23899;BME280;20544;50.018;20.010;2022-12-18T14:37:04;100921.91;;;-3.95;100.00
23899;BME280;20544;50.018;20.010;2022-12-18T14:40:22;100927.19;;;-3.99;100.00
23899;BME280;20544;50.018;20.010;2022-12-18T14:43:41;100934.38;;;-4.11;100.00
23899;BME280;20544;50.018;20.010;2022-12-18T14:47:01;100938.03;;;-4.19;100.00
23899;BME280;20544;50.018;20.010;2022-12-18T14:50:18;100936.31;;;-4.20;100.00
23899;BME280;20544;50.018;20.010;2022-12-18T14:53:42;100946.03;;;-4.30;100.00
23899;BME280;20544;50.018;20.010;2022-12-18T14:57:05;100943.53;;;-4.35;100.00
23899;BME280;20544;50.018;20.010;2022-12-18T15:00:28;100940.19;;;-4.39;100.00
23899;BME280;20544;50.018;20.010;2022-12-18T15:03:46;100938.66;;;-4.47;100.00
23899;BME280;20544;50.018;20.010;2022-12-18T15:07:14;100926.59;;;-4.50;100.00
23899;BME280;20544;50.018;20.010;2022-12-18T15:10:34;100922.41;;;-4.56;100.00
23899;BME280;20544;50.018;20.010;2022-12-18T15:13:52;100929.34;;;-4.58;100.00
23899;BME280;20544;50.018;20.010;2022-12-18T15:17:19;100940.63;;;-4.60;100.00
23899;BME280;20544;50.018;20.010;2022-12-18T15:20:43;100934.66;;;-4.64;100.00
23899;BME280;20544;50.018;20.010;2022-12-18T15:24:02;100943.42;;;-4.69;100.00
23899;BME280;20544;50.018;20.010;2022-12-18T15:27:31;100941.84;;;-4.77;100.00
23899;BME280;20544;50.018;20.010;2022-12-18T15:31:20;100935.03;;;-4.82;100.00
23899;BME280;20544;50.018;20.010;2022-12-18T15:34:40;100949.02;;;-4.91;100.00
23899;BME280;20544;50.018;20.010;2022-12-18T15:37:58;100950.77;;;-4.92;100.00
23899;BME280;20544;50.018;20.010;2022-12-18T15:41:17;100951.08;;;-5.09;100.00
23899;BME280;20544;50.018;20.010;2022-12-18T15:44:38;100956.14;;;-5.51;100.00
23899;BME280;20544;50.018;20.010;2022-12-18T15:48:08;100957.48;;;-5.80;100.00
23899;BME280;20544;50.018;20.010;2022-12-18T15:51:38;100961.46;;;-6.13;100.00
23899;BME280;20544;50.018;20.010;2022-12-18T15:55:01;100965.12;;;-6.28;100.00
23899;BME280;20544;50.018;20.010;2022-12-18T15:58:33;100956.98;;;-6.64;100.00
23899;BME280;20544;50.018;20.010;2022-12-18T16:01:51;100965.81;;;-6.83;100.00
23899;BME280;20544;50.018;20.010;2022-12-18T16:05:15;100958.54;;;-6.51;100.00
23899;BME280;20544;50.018;20.010;2022-12-18T16:08:33;100968.48;;;-6.23;100.00
23899;BME280;20544;50.018;20.010;2022-12-18T16:11:58;100962.25;;;-6.08;100.00
23899;BME280;20544;50.018;20.010;2022-12-18T16:15:18;100971.50;;;-5.95;100.00
23899;BME280;20544;50.018;20.010;2022-12-18T16:18:35;100978.30;;;-5.88;100.00
23899;BME280;20544;50.018;20.010;2022-12-18T16:21:52;100977.39;;;-5.85;100.00
23899;BME280;20544;50.018;20.010;2022-12-18T16:25:18;100973.00;;;-5.80;100.00
23899;BME280;20544;50.018;20.010;2022-12-18T16:28:44;100982.53;;;-5.83;100.00
23899;BME280;20544;50.018;20.010;2022-12-18T16:32:03;100990.05;;;-6.26;100.00
23899;BME280;20544;50.018;20.010;2022-12-18T16:35:20;100990.59;;;-6.69;100.00
23899;BME280;20544;50.018;20.010;2022-12-18T16:38:37;100992.02;;;-7.23;100.00
23899;BME280;20544;50.018;20.010;2022-12-18T16:41:54;100993.17;;;-7.56;100.00
23899;BME280;20544;50.018;20.010;2022-12-18T16:45:15;100998.44;;;-7.67;100.00
23899;BME280;20544;50.018;20.010;2022-12-18T16:48:33;101011.39;;;-7.78;100.00
23899;BME280;20544;50.018;20.010;2022-12-18T16:51:50;101007.91;;;-7.71;100.00
23899;BME280;20544;50.018;20.010;2022-12-18T16:55:08;101006.39;;;-8.00;100.00
23899;BME280;20544;50.018;20.010;2022-12-18T16:58:25;101001.83;;;-7.65;100.00
23899;BME280;20544;50.018;20.010;2022-12-18T17:01:53;100991.27;;;-7.34;100.00
23899;BME280;20544;50.018;20.010;2022-12-18T17:05:14;101007.62;;;-7.34;100.00
23899;BME280;20544;50.018;20.010;2022-12-18T17:08:31;101004.52;;;-7.76;100.00